Terminal Aerodrome Forecast
Issued by NWS

Home | Current Version | Previous Version | Text Only | Print | Product List | Glossary On
Versions: 1 2 3 4 5 6 7 8 9 10 11 12 13 14 15 16 17 18 19
000
FTUS43 KLSX 210500
TAFCPS
TAF
KCPS 210520Z 2106/2206 VRB04KT P6SM SCT250
     FM211600 17007KT P6SM FEW045
     FM220000 15005KT P6SM SCT250=

USA.gov is the U.S. government's official web portal to all federal, state and local government web resources and services.